createdAt,value
2022-07-25T00:02:01.135Z,1.83
2022-07-25T00:04:28.982Z,1.97
2022-07-25T00:06:58.259Z,1.60
2022-07-25T00:09:25.216Z,1.80
2022-07-25T00:11:52.137Z,2.07
2022-07-25T00:14:21.188Z,2.23
2022-07-25T00:16:48.107Z,1.50
2022-07-25T00:19:14.964Z,1.80
2022-07-25T00:21:41.846Z,1.50
2022-07-25T00:24:09.181Z,1.50
2022-07-25T00:26:39.950Z,1.83
2022-07-25T00:29:07.613Z,1.60
2022-07-25T00:31:34.570Z,1.60
2022-07-25T00:34:04.502Z,1.50
2022-07-25T00:36:33.725Z,1.80
2022-07-25T00:39:00.648Z,1.37
2022-07-25T00:41:27.790Z,1.47
2022-07-25T00:43:54.655Z,1.63
2022-07-25T00:46:21.880Z,1.83
2022-07-25T00:48:51.110Z,2.13
2022-07-25T00:51:18.173Z,1.60
2022-07-25T00:53:47.722Z,1.23
2022-07-25T00:56:16.811Z,1.70
2022-07-25T00:58:45.503Z,1.50
2022-07-25T01:01:12.453Z,1.93
2022-07-25T01:03:42.140Z,1.50
2022-07-25T01:06:09.031Z,1.23
2022-07-25T01:08:38.895Z,1.60
2022-07-25T01:11:08.955Z,1.33
2022-07-25T01:13:35.882Z,1.40
2022-07-25T01:16:02.885Z,1.53
2022-07-25T01:18:29.871Z,1.13
2022-07-25T01:20:56.787Z,1.67
2022-07-25T01:23:23.592Z,1.47
2022-07-25T01:25:52.716Z,1.63
2022-07-25T01:28:19.888Z,1.87
2022-07-25T01:30:47.023Z,1.37
2022-07-25T01:33:18.402Z,1.47
2022-07-25T01:35:48.957Z,1.60
2022-07-25T01:38:16.595Z,1.30
2022-07-25T01:40:44.238Z,1.70
2022-07-25T01:43:16.045Z,1.50
2022-07-25T01:45:42.907Z,1.47
2022-07-25T01:48:09.936Z,1.80
2022-07-25T01:50:36.818Z,1.70
2022-07-25T01:53:04.514Z,1.60
2022-07-25T01:55:31.361Z,1.60
2022-07-25T01:57:59.662Z,1.57
2022-07-25T02:00:26.596Z,1.43
2022-07-25T02:03:11.894Z,1.43
2022-07-25T02:05:38.732Z,1.27
2022-07-25T02:08:05.749Z,1.93
2022-07-25T02:10:33.145Z,1.43
2022-07-25T02:13:01.517Z,1.40
2022-07-25T02:15:28.466Z,1.50
2022-07-25T02:17:55.417Z,1.97
2022-07-25T02:20:22.254Z,1.80
2022-07-25T02:22:49.152Z,1.80
2022-07-25T02:25:16.158Z,1.53
2022-07-25T02:27:42.974Z,2.00
2022-07-25T02:30:10.170Z,1.73
2022-07-25T02:32:37.084Z,1.30
2022-07-25T02:35:05.449Z,1.43
2022-07-25T02:37:40.488Z,1.60
2022-07-25T02:40:08.059Z,1.70
2022-07-25T02:42:34.856Z,1.53
2022-07-25T02:45:02.184Z,1.80
2022-07-25T02:47:29.598Z,1.80
2022-07-25T02:49:58.750Z,1.60
2022-07-25T02:52:28.104Z,1.33
2022-07-25T02:54:58.002Z,1.50
2022-07-25T02:57:24.770Z,1.90
2022-07-25T02:59:56.186Z,1.60
2022-07-25T03:02:23.299Z,1.40
2022-07-25T03:04:50.111Z,2.27
2022-07-25T03:07:19.888Z,1.93
2022-07-25T03:09:48.842Z,1.70
2022-07-25T03:12:18.114Z,1.53
2022-07-25T03:14:45.032Z,1.50
2022-07-25T03:17:12.055Z,1.70
2022-07-25T03:19:38.954Z,1.63
2022-07-25T03:22:05.806Z,1.60
2022-07-25T03:24:34.733Z,1.60
2022-07-25T03:27:01.713Z,1.40
2022-07-25T03:29:28.608Z,1.50
2022-07-25T03:31:55.888Z,1.47
2022-07-25T03:34:22.837Z,1.70
2022-07-25T03:36:49.808Z,1.70
2022-07-25T03:39:16.791Z,2.07
2022-07-25T03:41:43.743Z,1.90
2022-07-25T03:44:10.717Z,1.67
2022-07-25T03:46:37.650Z,1.60
2022-07-25T03:49:07.127Z,1.27
2022-07-25T03:51:33.999Z,1.87
2022-07-25T03:54:04.529Z,2.00
2022-07-25T03:56:47.609Z,1.57
2022-07-25T03:59:19.020Z,1.60
2022-07-25T04:01:49.141Z,1.57
2022-07-25T04:04:19.565Z,2.00
2022-07-25T04:06:51.764Z,1.60
2022-07-25T04:09:18.704Z,1.80
2022-07-25T04:11:45.488Z,1.73
2022-07-25T04:14:12.383Z,1.70
2022-07-25T04:16:39.838Z,1.70
2022-07-25T04:19:07.501Z,1.63
2022-07-25T04:21:35.523Z,1.90
2022-07-25T04:24:02.585Z,1.83
2022-07-25T04:26:34.267Z,2.07
2022-07-25T04:29:03.671Z,1.47
2022-07-25T04:31:30.814Z,1.77
2022-07-25T04:34:00.147Z,1.73
2022-07-25T04:36:27.074Z,1.77
2022-07-25T04:38:53.844Z,2.13
2022-07-25T04:41:20.647Z,1.70
2022-07-25T04:43:48.856Z,1.70
2022-07-25T04:46:20.458Z,2.13
2022-07-25T04:48:48.147Z,1.93
2022-07-25T04:51:15.668Z,1.60
2022-07-25T04:53:42.592Z,2.00
2022-07-25T04:56:09.321Z,1.70
2022-07-25T04:58:36.477Z,1.70
2022-07-25T05:01:03.619Z,1.90
2022-07-25T05:03:30.470Z,1.70
2022-07-25T05:05:57.424Z,1.60
2022-07-25T05:08:24.329Z,1.33
2022-07-25T05:10:51.192Z,1.60
2022-07-25T05:13:20.839Z,1.60
2022-07-25T05:15:47.754Z,1.40
2022-07-25T05:18:16.870Z,1.87
2022-07-25T05:20:43.706Z,1.43
2022-07-25T05:23:13.061Z,1.40
2022-07-25T05:25:40.024Z,2.03
2022-07-25T05:28:06.948Z,2.00
2022-07-25T05:30:39.348Z,1.47
2022-07-25T05:33:06.695Z,1.80
2022-07-25T05:35:35.850Z,1.57
2022-07-25T05:38:02.833Z,1.70
2022-07-25T05:40:29.587Z,1.90
2022-07-25T05:43:00.918Z,1.80
2022-07-25T05:45:32.453Z,1.73
2022-07-25T05:48:01.834Z,1.60
2022-07-25T05:50:28.711Z,1.83
2022-07-25T05:52:58.044Z,2.03
2022-07-25T05:55:24.847Z,1.77
2022-07-25T05:57:53.965Z,2.00
2022-07-25T06:00:20.862Z,1.80
2022-07-25T06:02:50.152Z,1.80
2022-07-25T06:05:17.077Z,1.67
2022-07-25T06:07:43.944Z,2.10
2022-07-25T06:10:10.949Z,1.83
2022-07-25T06:12:37.759Z,1.70
2022-07-25T06:15:05.677Z,2.33
2022-07-25T06:17:32.897Z,2.10
2022-07-25T06:19:59.883Z,2.07
2022-07-25T06:22:26.849Z,2.10
2022-07-25T06:24:53.841Z,1.70
2022-07-25T06:27:23.026Z,2.40
2022-07-25T06:29:51.794Z,2.23
2022-07-25T06:32:18.576Z,1.80
2022-07-25T06:34:45.430Z,2.10
2022-07-25T06:37:12.219Z,1.60
2022-07-25T06:39:42.544Z,2.60
2022-07-25T06:42:12.222Z,1.90
2022-07-25T06:44:41.212Z,2.30
2022-07-25T06:47:12.859Z,1.97
2022-07-25T06:49:41.339Z,2.30
2022-07-25T06:52:08.793Z,2.27
2022-07-25T06:54:35.663Z,2.10
2022-07-25T06:57:02.510Z,2.17
2022-07-25T06:59:29.370Z,2.30
2022-07-25T07:01:58.389Z,2.23
2022-07-25T07:04:25.237Z,2.50
2022-07-25T07:06:52.353Z,2.77
2022-07-25T07:09:19.163Z,2.60
2022-07-25T07:11:45.974Z,2.97
2022-07-25T07:14:12.799Z,3.87
2022-07-25T07:16:41.371Z,2.80
2022-07-25T07:19:14.620Z,3.50
2022-07-25T07:21:42.070Z,3.27
2022-07-25T07:24:23.189Z,2.43
2022-07-25T07:26:53.811Z,3.80
2022-07-25T07:29:22.993Z,2.53
2022-07-25T07:31:57.050Z,2.80
2022-07-25T07:34:25.986Z,2.40
2022-07-25T07:36:52.938Z,2.73
2022-07-25T07:39:19.931Z,2.73
2022-07-25T07:41:48.809Z,2.60
2022-07-25T07:44:15.681Z,3.33
2022-07-25T07:46:42.777Z,2.60
2022-07-25T07:49:10.310Z,2.90
2022-07-25T07:51:40.003Z,2.53
2022-07-25T07:54:25.361Z,2.53
2022-07-25T07:56:52.194Z,3.13
2022-07-25T07:59:19.159Z,2.43
2022-07-25T08:01:46.035Z,3.40
2022-07-25T08:04:15.614Z,3.50
2022-07-25T08:06:43.177Z,3.27
2022-07-25T08:09:10.388Z,3.13
2022-07-25T08:11:42.061Z,3.10
2022-07-25T08:14:11.512Z,2.97
2022-07-25T08:16:38.466Z,3.77
2022-07-25T08:19:05.292Z,4.50
2022-07-25T08:21:32.209Z,3.17
2022-07-25T08:23:59.165Z,3.60
2022-07-25T08:26:27.866Z,2.93
2022-07-25T08:29:17.239Z,3.43
2022-07-25T08:31:41.591Z,3.97
2022-07-25T08:34:10.580Z,3.57
2022-07-25T08:36:37.944Z,4.30
2022-07-25T08:39:04.823Z,3.70
2022-07-25T08:41:33.878Z,3.50
2022-07-25T08:44:02.863Z,3.20
2022-07-25T08:46:30.204Z,3.10
2022-07-25T08:48:59.879Z,4.10
2022-07-25T08:51:30.516Z,4.77
2022-07-25T08:53:57.664Z,3.33
2022-07-25T08:56:25.412Z,4.43
2022-07-25T08:58:53.955Z,4.07
2022-07-25T09:01:23.427Z,4.03
2022-07-25T09:03:50.572Z,4.07
2022-07-25T09:06:20.801Z,3.90
2022-07-25T09:08:59.633Z,4.60
2022-07-25T09:11:37.126Z,4.13
2022-07-25T09:14:10.349Z,4.13
2022-07-25T09:16:41.908Z,4.10
2022-07-25T09:19:11.058Z,4.50
2022-07-25T09:21:39.885Z,3.97
2022-07-25T09:24:11.521Z,3.60
2022-07-25T09:26:58.521Z,4.60
2022-07-25T09:29:30.540Z,4.70
2022-07-25T09:31:59.586Z,4.50
2022-07-25T09:34:49.860Z,4.73
2022-07-25T09:37:19.555Z,4.67
2022-07-25T09:39:49.833Z,4.77
2022-07-25T09:42:21.129Z,4.30
2022-07-25T09:45:15.290Z,5.10
2022-07-25T09:47:57.386Z,4.90
2022-07-25T09:50:28.579Z,4.53
2022-07-25T09:53:01.996Z,4.80
2022-07-25T09:55:30.186Z,5.10
2022-07-25T09:57:57.011Z,5.20
2022-07-25T10:00:26.777Z,4.97
2022-07-25T10:03:15.118Z,4.37
2022-07-25T10:06:20.391Z,4.53
2022-07-25T10:08:50.820Z,4.37
2022-07-25T10:11:25.744Z,4.70
2022-07-25T10:13:54.014Z,4.00
2022-07-25T10:16:24.501Z,5.83
2022-07-25T10:18:53.970Z,4.70
2022-07-25T10:21:26.865Z,4.37
2022-07-25T10:24:06.837Z,4.60
2022-07-25T10:26:40.044Z,5.07
2022-07-25T10:29:11.647Z,4.07
2022-07-25T10:31:49.355Z,4.80
2022-07-25T10:34:28.975Z,4.20
2022-07-25T10:36:57.256Z,5.50
2022-07-25T10:39:24.238Z,5.07
2022-07-25T10:41:53.167Z,4.10
2022-07-25T10:44:20.033Z,5.10
2022-07-25T10:46:50.793Z,4.53
2022-07-25T10:49:32.233Z,4.67
2022-07-25T10:52:01.314Z,4.10
2022-07-25T10:54:37.480Z,4.07
2022-07-25T10:57:06.425Z,4.70
2022-07-25T10:59:36.735Z,4.57
2022-07-25T11:02:06.802Z,5.17
2022-07-25T11:04:34.544Z,5.40
2022-07-25T11:07:12.486Z,4.80
2022-07-25T11:09:40.712Z,4.67
2022-07-25T11:12:14.181Z,4.97
2022-07-25T11:14:42.839Z,4.93
2022-07-25T11:17:22.450Z,5.00
2022-07-25T11:20:09.802Z,5.50
2022-07-25T11:22:36.788Z,4.63
2022-07-25T11:25:11.820Z,4.63
2022-07-25T11:27:38.800Z,5.00
2022-07-25T11:30:19.004Z,4.67
2022-07-25T11:32:54.544Z,4.80
2022-07-25T11:35:24.448Z,4.07
2022-07-25T11:37:52.298Z,4.07
2022-07-25T11:40:21.210Z,4.80
2022-07-25T11:42:50.807Z,4.47
2022-07-25T11:45:22.704Z,4.27
2022-07-25T11:48:05.859Z,4.10
2022-07-25T11:50:34.602Z,4.60
2022-07-25T11:53:05.743Z,4.17
2022-07-25T11:55:38.113Z,4.93
2022-07-25T11:58:05.884Z,4.70
2022-07-25T12:00:51.568Z,4.30
2022-07-25T12:03:23.036Z,4.43
2022-07-25T12:05:50.441Z,4.37
2022-07-25T12:08:25.076Z,5.33
2022-07-25T12:10:55.689Z,4.60
2022-07-25T12:13:30.561Z,4.40
2022-07-25T12:15:59.040Z,5.03
2022-07-25T12:18:28.507Z,4.37
2022-07-25T12:20:55.537Z,4.67
2022-07-25T12:23:22.489Z,4.37
2022-07-25T12:25:50.306Z,4.57
2022-07-25T12:28:17.349Z,4.40
2022-07-25T12:30:51.611Z,4.20
2022-07-25T12:33:24.333Z,3.63
2022-07-25T12:35:51.128Z,4.43
2022-07-25T12:38:17.956Z,3.97
2022-07-25T12:40:44.917Z,4.32
2022-07-25T12:43:11.816Z,3.55
2022-07-25T12:45:39.694Z,3.67
2022-07-25T12:48:07.026Z,3.90
2022-07-25T12:50:33.847Z,3.22
2022-07-25T12:53:01.045Z,3.42
2022-07-25T12:55:28.132Z,3.60
2022-07-25T12:57:55.132Z,3.10
2022-07-25T13:00:23.237Z,2.88
2022-07-25T13:02:52.125Z,2.88
2022-07-25T13:05:22.513Z,3.20
2022-07-25T13:07:49.635Z,2.42
2022-07-25T13:10:18.091Z,2.60
2022-07-25T13:12:45.330Z,2.70
2022-07-25T13:15:12.399Z,2.60
2022-07-25T13:17:42.061Z,2.70
2022-07-25T13:20:09.890Z,2.50
2022-07-25T13:22:39.090Z,2.30
2022-07-25T13:25:06.538Z,2.45
2022-07-25T13:27:33.640Z,2.65
2022-07-25T13:30:05.533Z,2.67
2022-07-25T13:32:35.236Z,2.83
2022-07-25T13:35:02.159Z,3.13
2022-07-25T13:37:28.923Z,2.63
2022-07-25T13:39:58.113Z,3.10
2022-07-25T13:42:25.144Z,3.45
2022-07-25T13:44:51.967Z,2.80
2022-07-25T13:47:21.328Z,2.95
2022-07-25T13:49:50.331Z,3.30
2022-07-25T13:52:22.049Z,3.60
2022-07-25T13:54:48.866Z,2.88
2022-07-25T13:57:15.728Z,3.08
2022-07-25T13:59:42.507Z,2.58
2022-07-25T14:02:11.860Z,2.85
2022-07-25T14:04:41.448Z,2.13
2022-07-25T14:07:08.614Z,2.53
2022-07-25T14:09:35.496Z,2.45
2022-07-25T14:12:02.390Z,2.85
2022-07-25T14:14:29.178Z,2.20
2022-07-25T14:16:56.467Z,2.33
2022-07-25T14:19:25.858Z,1.80
2022-07-25T14:21:52.640Z,1.88
2022-07-25T14:24:21.688Z,1.75
2022-07-25T14:26:49.620Z,1.70
2022-07-25T14:29:16.566Z,2.60
2022-07-25T14:31:43.488Z,2.28
2022-07-25T14:34:15.338Z,1.88
2022-07-25T14:36:42.455Z,2.00
2022-07-25T14:39:11.825Z,1.90
2022-07-25T14:41:38.837Z,2.10
2022-07-25T14:44:09.388Z,2.08
2022-07-25T14:46:36.393Z,2.15
2022-07-25T14:49:03.496Z,2.30
2022-07-25T14:51:30.575Z,2.20
2022-07-25T14:53:57.635Z,2.70
2022-07-25T14:56:24.637Z,3.30
2022-07-25T14:58:51.717Z,3.30
2022-07-25T15:01:24.483Z,3.20
2022-07-25T15:03:56.105Z,3.13
2022-07-25T15:06:27.329Z,3.15
2022-07-25T15:08:56.206Z,3.22
2022-07-25T15:11:23.898Z,3.92
2022-07-25T15:13:53.193Z,3.55
2022-07-25T15:16:22.212Z,3.42
2022-07-25T15:19:14.432Z,3.72
2022-07-25T15:21:37.261Z,4.47
2022-07-25T15:24:04.820Z,3.53
2022-07-25T15:26:34.680Z,4.47
2022-07-25T15:29:01.677Z,3.73
2022-07-25T15:31:30.643Z,4.20
2022-07-25T15:33:58.231Z,4.47
2022-07-25T15:36:29.295Z,3.87
2022-07-25T15:38:58.794Z,3.80
2022-07-25T15:41:26.611Z,4.60
2022-07-25T15:43:53.646Z,5.10
2022-07-25T15:46:23.127Z,4.30
2022-07-25T15:48:50.144Z,4.83
2022-07-25T15:51:19.539Z,3.87
2022-07-25T15:53:46.343Z,3.70
2022-07-25T15:56:16.498Z,4.13
2022-07-25T15:58:44.307Z,3.80
2022-07-25T16:01:11.452Z,3.65
2022-07-25T16:03:38.516Z,3.75
2022-07-25T16:06:05.434Z,3.78
2022-07-25T16:08:32.244Z,3.80
2022-07-25T16:10:59.877Z,3.40
2022-07-25T16:13:26.843Z,3.72
2022-07-25T16:15:54.050Z,4.03
2022-07-25T16:18:21.017Z,3.93
2022-07-25T16:20:47.826Z,4.15
2022-07-25T16:23:16.709Z,3.70
2022-07-25T16:25:43.702Z,3.80
2022-07-25T16:28:10.668Z,3.83
2022-07-25T16:30:39.701Z,3.60
2022-07-25T16:33:06.492Z,4.83
2022-07-25T16:35:33.334Z,4.70
2022-07-25T16:38:00.703Z,3.53
2022-07-25T16:40:30.983Z,5.47
2022-07-25T16:42:59.239Z,4.40
2022-07-25T16:45:26.871Z,3.60
2022-07-25T16:47:53.754Z,4.53
2022-07-25T16:50:20.928Z,4.23
2022-07-25T16:52:48.305Z,4.20
2022-07-25T16:55:15.160Z,4.50
2022-07-25T16:57:44.575Z,3.67
2022-07-25T17:00:12.228Z,4.00
2022-07-25T17:02:39.776Z,3.83
2022-07-25T17:05:09.660Z,4.30
2022-07-25T17:07:40.563Z,4.40
2022-07-25T17:10:10.220Z,3.60
2022-07-25T17:12:37.214Z,4.30
2022-07-25T17:15:05.009Z,4.13
2022-07-25T17:17:31.800Z,4.40
2022-07-25T17:20:00.219Z,3.93
2022-07-25T17:22:30.032Z,4.20
2022-07-25T17:25:01.649Z,4.00
2022-07-25T17:27:28.500Z,4.90
2022-07-25T17:29:58.383Z,4.83
2022-07-25T17:32:29.365Z,4.90
2022-07-25T17:34:57.018Z,5.07
2022-07-25T17:37:24.476Z,5.40
2022-07-25T17:39:51.348Z,5.90
2022-07-25T17:42:22.323Z,5.23
2022-07-25T17:44:52.804Z,5.07
2022-07-25T17:47:22.084Z,5.90
2022-07-25T17:49:52.678Z,5.50
2022-07-25T17:52:19.514Z,4.90
2022-07-25T17:54:46.300Z,5.07
2022-07-25T17:57:13.201Z,4.87
2022-07-25T17:59:40.042Z,4.97
2022-07-25T18:02:11.868Z,5.63
2022-07-25T18:04:38.867Z,5.43
2022-07-25T18:07:05.899Z,4.57
2022-07-25T18:09:35.153Z,4.70
2022-07-25T18:12:02.013Z,4.27
2022-07-25T18:14:31.518Z,4.17
2022-07-25T18:16:58.443Z,4.37
2022-07-25T18:19:26.418Z,4.40
2022-07-25T18:21:53.476Z,4.70
2022-07-25T18:24:20.259Z,4.90
2022-07-25T18:26:49.309Z,4.80
2022-07-25T18:29:16.936Z,4.33
2022-07-25T18:31:46.171Z,4.50
2022-07-25T18:34:13.139Z,4.93
2022-07-25T18:36:40.829Z,4.23
2022-07-25T18:39:07.798Z,4.90
2022-07-25T18:41:34.651Z,5.10
2022-07-25T18:44:04.007Z,5.10
2022-07-25T18:46:32.827Z,5.10
2022-07-25T18:49:00.932Z,4.80
2022-07-25T18:51:27.931Z,6.83
2022-07-25T18:53:54.730Z,4.97
2022-07-25T18:56:21.536Z,4.90
2022-07-25T18:58:48.617Z,5.27
2022-07-25T19:01:15.634Z,4.67
2022-07-25T19:03:42.559Z,5.20
2022-07-25T19:06:10.430Z,4.83
2022-07-25T19:08:37.783Z,5.43
2022-07-25T19:11:05.021Z,4.90
2022-07-25T19:13:49.054Z,5.00
2022-07-25T19:16:20.571Z,4.57
2022-07-25T19:18:50.518Z,4.90
2022-07-25T19:21:17.406Z,4.80
2022-07-25T19:23:50.146Z,4.37
2022-07-25T19:26:18.707Z,4.90
2022-07-25T19:28:45.883Z,5.80
2022-07-25T19:31:14.611Z,5.20
2022-07-25T19:33:42.200Z,4.60
2022-07-25T19:36:09.461Z,6.00
2022-07-25T19:38:36.222Z,5.50
2022-07-25T19:41:03.220Z,5.10
2022-07-25T19:43:30.212Z,5.10
2022-07-25T19:45:57.066Z,5.60
2022-07-25T19:48:24.239Z,5.80
2022-07-25T19:50:54.841Z,5.17
2022-07-25T19:53:28.319Z,5.27
2022-07-25T19:55:55.628Z,5.13
2022-07-25T19:58:22.579Z,5.10
2022-07-25T20:00:51.959Z,5.63
2022-07-25T20:03:23.362Z,5.00
2022-07-25T20:05:53.438Z,4.20
2022-07-25T20:08:22.605Z,4.27
2022-07-25T20:10:49.639Z,4.00
2022-07-25T20:13:16.701Z,4.40
2022-07-25T20:15:46.305Z,3.70
2022-07-25T20:18:18.963Z,4.27
2022-07-25T20:20:51.013Z,3.50
2022-07-25T20:23:18.123Z,3.87
2022-07-25T20:25:45.080Z,4.17
2022-07-25T20:28:12.222Z,3.00
2022-07-25T20:30:39.430Z,3.33
2022-07-25T20:33:10.036Z,4.47
2022-07-25T20:35:37.767Z,3.50
2022-07-25T20:38:09.722Z,4.40
2022-07-25T20:40:47.995Z,4.00
2022-07-25T20:43:16.319Z,4.27
2022-07-25T20:45:43.510Z,4.13
2022-07-25T20:48:10.705Z,4.10
2022-07-25T20:50:40.428Z,4.23
2022-07-25T20:53:08.287Z,4.63
2022-07-25T20:55:35.338Z,4.00
2022-07-25T20:58:02.769Z,4.20
2022-07-25T21:00:30.665Z,3.77
2022-07-25T21:02:58.908Z,4.47
2022-07-25T21:05:26.295Z,4.43
2022-07-25T21:07:53.351Z,4.77
2022-07-25T21:10:20.893Z,4.00
2022-07-25T21:12:47.793Z,4.30
2022-07-25T21:15:17.613Z,3.97
2022-07-25T21:17:44.547Z,3.83
2022-07-25T21:20:15.124Z,4.00
2022-07-25T21:22:42.749Z,4.93
2022-07-25T21:25:10.694Z,4.13
2022-07-25T21:27:38.477Z,4.20
2022-07-25T21:30:09.937Z,4.50
2022-07-25T21:32:36.973Z,4.47
2022-07-25T21:35:05.496Z,4.37
2022-07-25T21:37:32.379Z,4.37
2022-07-25T21:39:59.733Z,4.43
2022-07-25T21:42:29.816Z,4.30
2022-07-25T21:44:56.746Z,4.27
2022-07-25T21:47:23.609Z,4.07
2022-07-25T21:50:09.022Z,4.80
2022-07-25T21:52:36.034Z,4.00
2022-07-25T21:55:04.795Z,4.13
2022-07-25T21:57:34.552Z,3.60
2022-07-25T22:00:01.387Z,4.13
2022-07-25T22:02:28.179Z,4.83
2022-07-25T22:04:55.032Z,4.70
2022-07-25T22:07:22.860Z,5.43
2022-07-25T22:09:50.659Z,4.77
2022-07-25T22:12:17.804Z,5.00
2022-07-25T22:14:44.670Z,5.93
2022-07-25T22:17:13.584Z,5.53
2022-07-25T22:19:41.062Z,5.83
2022-07-25T22:22:08.205Z,4.83
2022-07-25T22:24:35.285Z,5.37
2022-07-25T22:27:06.615Z,5.43
2022-07-25T22:29:36.171Z,5.30
2022-07-25T22:32:03.103Z,4.90
2022-07-25T22:34:30.139Z,5.20
2022-07-25T22:36:57.099Z,4.97
2022-07-25T22:39:23.990Z,6.07
2022-07-25T22:41:50.978Z,5.00
2022-07-25T22:44:20.078Z,4.90
2022-07-25T22:46:46.954Z,4.87
2022-07-25T22:49:16.352Z,5.70
2022-07-25T22:51:43.407Z,6.00
2022-07-25T22:54:12.660Z,5.23
2022-07-25T22:56:39.496Z,5.40
2022-07-25T22:59:06.458Z,5.70
2022-07-25T23:01:35.931Z,4.80
2022-07-25T23:04:02.908Z,4.97
2022-07-25T23:06:29.921Z,5.20
2022-07-25T23:08:59.853Z,4.80
2022-07-25T23:11:27.874Z,4.70
2022-07-25T23:13:54.690Z,4.20
2022-07-25T23:16:21.895Z,4.10
2022-07-25T23:18:48.775Z,4.37
2022-07-25T23:21:15.582Z,4.50
2022-07-25T23:23:42.356Z,4.20
2022-07-25T23:26:09.258Z,4.33
2022-07-25T23:28:36.186Z,4.60
2022-07-25T23:31:05.757Z,3.63
2022-07-25T23:33:32.614Z,4.70
2022-07-25T23:36:01.867Z,4.23
2022-07-25T23:38:28.663Z,3.60
2022-07-25T23:40:55.743Z,3.87
2022-07-25T23:43:57.672Z,4.10
2022-07-25T23:46:16.414Z,2.87
2022-07-25T23:48:45.165Z,4.63
2022-07-25T23:51:11.953Z,3.20
2022-07-25T23:53:41.161Z,3.80
2022-07-25T23:56:08.206Z,3.77
2022-07-25T23:58:37.197Z,2.80
